Date,TemperatureHighF,TemperatureAvgF,TemperatureLowF,DewpointHighF,DewpointAvgF,DewpointLowF,HumidityHigh,HumidityAvg,HumidityLow,PressureMaxIn,PressureMinIn,WindSpeedMaxMPH,WindSpeedAvgMPH,GustSpeedMaxMPH,PrecipitationSumIn
2013-12-1,33.6,24.7,15.8,25.0,19.4,13.0,88,81,68,30.22,29.95,0,0,0,0.00
2013-12-2,36.4,31.6,24.8,32.0,28.1,21.0,92,87,79,29.94,29.59,0,0,0,0.08
2013-12-3,34.2,33.1,30.9,32.0,31.3,29.0,93,93,92,29.81,29.59,0,0,0,0.06
2013-12-4,30.6,26.0,11.8,29.0,23.6,7.0,93,90,81,29.79,29.49,0,0,0,0.00
2013-12-5,11.3,4.0,-3.7,7.0,-2.1,-9.0,81,76,69,30.40,29.71,0,0,0,0.00
2013-12-6,2.9,-5.4,-11.6,-6.0,-11.4,-17.0,80,75,66,30.73,30.41,0,0,0,0.00
2013-12-7,-0.8,-8.4,-15.7,-10.0,-14.8,-21.0,79,74,62,30.82,30.67,0,0,0,0.00
2013-12-8,11.0,4.0,-9.0,6.0,-0.6,-14.0,85,81,78,30.66,30.11,0,0,0,0.00
2013-12-9,7.5,-1.6,-7.4,4.0,-7.5,-14.0,85,76,67,30.17,29.94,0,0,0,0.00
2013-12-10,6.8,3.5,-1.5,3.0,-2.4,-7.0,84,77,66,30.37,29.84,0,0,1,0.00
2013-12-11,-0.3,-5.5,-13.3,-7.0,-12.8,-19.0,77,71,62,30.65,30.39,0,0,0,0.00
2013-12-12,17.3,9.1,-0.5,9.0,2.6,-6.0,84,75,64,30.39,30.21,0,0,0,0.00
2013-12-13,14.4,11.2,7.8,10.0,5.5,3.0,85,77,70,30.36,30.19,0,0,0,0.00
2013-12-14,13.5,7.6,-2.5,6.0,2.1,-9.0,82,78,71,30.35,30.15,0,0,0,0.00
2013-12-15,2.4,-1.1,-3.6,-8.0,-9.3,-11.0,76,69,57,30.24,30.18,0,0,0,0.00
2013-12-16,23.3,8.7,-0.5,20.0,3.2,-9.0,87,78,67,30.20,29.95,0,0,0,0.00
2013-12-17,31.1,21.0,3.5,27.0,14.7,-1.0,86,77,62,30.14,29.92,0,0,0,0.00
2013-12-18,32.5,21.7,2.2,24.0,15.7,-2.0,86,78,65,30.10,29.68,0,0,0,0.07
2013-12-19,24.0,15.7,13.2,19.0,9.5,6.0,83,76,70,30.12,29.84,0,0,0,0.00
2013-12-20,16.7,13.6,8.7,11.0,8.8,5.0,84,81,76,30.09,29.90,0,0,0,0.00
2013-12-21,20.1,16.7,13.8,13.0,11.3,10.0,83,79,74,30.05,29.91,0,0,0,0.00
2013-12-22,16.3,12.4,4.5,11.0,7.5,0.0,83,81,77,30.30,30.00,0,0,0,0.00
2013-12-23,4.2,-3.0,-12.8,-1.0,-9.7,-19.0,80,73,65,30.60,30.30,0,0,0,0.00
2013-12-24,10.3,-2.6,-18.4,4.0,-9.5,-24.0,83,73,54,30.57,30.21,0,0,0,0.00
2013-12-25,24.8,15.0,8.6,21.0,10.6,5.0,87,82,74,30.22,30.10,0,0,0,0.00
2013-12-26,24.7,16.9,7.8,20.0,12.9,4.0,87,84,81,30.21,30.12,0,0,0,0.00
2013-12-27,38.3,27.0,6.7,30.0,22.7,3.0,90,84,71,30.20,29.91,0,0,0,0.22
2013-12-28,43.1,29.5,15.3,31.0,25.0,9.0,92,84,63,30.06,29.66,0,0,0,0.33
2013-12-29,14.6,-3.8,-16.8,9.0,-12.5,-23.0,77,66,54,30.38,30.07,0,0,0,0.00
2013-12-30,1.5,-7.7,-18.7,-5.0,-13.3,-24.0,80,76,74,30.38,30.28,0,0,0,0.00
2013-12-31,-4.0,-9.7,-15.7,-10.0,-15.6,-21.0,79,75,68,30.53,30.30,0,0,0,0.00